Time;durP1;ratioP1;P1;durP2;ratioP2;P2;SDS_P1;SDS_P2;PMS_P1;PMS_P2;Temp;Humidity;BMP_temperature;BMP_pressure;BME280_temperature;BME280_humidity;BME280_pressure;Samples;Min_cycle;Max_cycle;Signal;HPM_P1;HPM_P2
2022/09/14 00:01:00;;;;;;;7.55;2.75;;;13.30;99.90;;;;;;4959950;28;20077;-89
2022/09/14 00:03:25;;;;;;;9.52;3.00;;;13.30;99.90;;;;;;4984384;28;20065;-90
2022/09/14 00:05:51;;;;;;;6.85;2.72;;;13.30;99.90;;;;;;4996830;28;20140;-89
2022/09/14 00:08:19;;;;;;;5.50;2.75;;;13.30;99.90;;;;;;4964709;28;20042;-89
2022/09/14 00:10:47;;;;;;;9.13;2.88;;;13.10;99.90;;;;;;4967492;28;20406;-89
2022/09/14 00:13:15;;;;;;;4.82;2.40;;;13.20;99.90;;;;;;4982083;28;20470;-88
2022/09/14 00:15:45;;;;;;;4.53;2.60;;;13.10;99.90;;;;;;4963329;28;20156;-89
2022/09/14 00:18:11;;;;;;;4.80;2.15;;;13.10;99.90;;;;;;4998864;28;20129;-89
2022/09/14 00:20:37;;;;;;;5.97;2.55;;;13.10;99.90;;;;;;4967257;28;20042;-88
2022/09/14 00:23:04;;;;;;;7.65;2.92;;;13.10;99.90;;;;;;4966498;28;20030;-89
2022/09/14 00:25:30;;;;;;;7.30;2.80;;;13.10;99.90;;;;;;4973292;28;20053;-89
2022/09/14 00:27:57;;;;;;;8.27;2.45;;;13.10;99.90;;;;;;4962769;28;20046;-88
2022/09/14 00:30:23;;;;;;;4.82;2.70;;;13.00;99.90;;;;;;4961580;28;20041;-89
2022/09/14 00:32:50;;;;;;;5.35;2.55;;;12.90;99.90;;;;;;4966309;28;20099;-88
2022/09/14 00:35:16;;;;;;;5.30;2.72;;;12.80;99.90;;;;;;4969798;28;20567;-88
2022/09/14 00:37:44;;;;;;;5.82;2.35;;;12.90;99.90;;;;;;4965429;28;20163;-89
2022/09/14 00:40:11;;;;;;;6.32;2.85;;;12.90;99.90;;;;;;4992579;28;20081;-89
2022/09/14 00:42:37;;;;;;;5.38;2.90;;;12.80;99.90;;;;;;4965502;28;20057;-89
2022/09/14 00:45:13;;;;;;;4.35;3.15;;;12.80;99.90;;;;;;4979645;28;20437;-90
2022/09/14 00:47:39;;;;;;;6.35;2.63;;;12.80;99.90;;;;;;4990426;28;20527;-89
2022/09/14 00:50:06;;;;;;;7.43;3.00;;;12.90;99.90;;;;;;4967114;28;20129;-89
2022/09/14 00:52:35;;;;;;;7.15;3.33;;;12.90;99.90;;;;;;4971564;28;20038;-89
2022/09/14 00:55:08;;;;;;;7.28;2.78;;;12.90;99.90;;;;;;4963968;28;20495;-90
2022/09/14 00:57:48;;;;;;;5.18;2.78;;;12.70;99.90;;;;;;5005394;28;20120;-89
2022/09/14 01:00:17;;;;;;;5.68;2.97;;;12.80;99.90;;;;;;4959452;28;20045;-89
2022/09/14 01:02:43;;;;;;;5.55;3.10;;;12.70;99.90;;;;;;4971480;28;20030;-89
2022/09/14 01:05:09;;;;;;;7.97;2.90;;;12.60;99.90;;;;;;4961089;28;20113;-90
2022/09/14 01:07:55;;;;;;;3.30;2.63;;;12.60;99.90;;;;;;4967219;28;20613;-89
2022/09/14 01:10:39;;;;;;;6.20;2.90;;;12.60;99.90;;;;;;4964387;28;20315;-90
2022/09/14 01:13:27;;;;;;;8.53;2.90;;;12.70;99.90;;;;;;4984546;28;20113;-89
2022/09/14 01:16:11;;;;;;;6.00;2.65;;;12.60;99.90;;;;;;4965312;28;20102;-89
2022/09/14 01:18:46;;;;;;;7.93;2.63;;;12.50;99.90;;;;;;4986873;28;20049;-89
2022/09/14 01:21:27;;;;;;;5.68;2.70;;;12.40;99.90;;;;;;4991038;28;20565;-90
2022/09/14 01:24:08;;;;;;;6.03;2.60;;;12.40;99.90;;;;;;4973013;28;20042;-89
2022/09/14 01:26:58;;;;;;;5.70;3.20;;;12.40;99.90;;;;;;4999407;28;20050;-90
2022/09/14 01:29:46;;;;;;;5.43;2.75;;;12.40;99.90;;;;;;4986264;28;20069;-90
2022/09/14 01:32:17;;;;;;;5.07;3.17;;;12.40;99.90;;;;;;4984500;28;20037;-90
2022/09/14 01:34:59;;;;;;;5.90;3.38;;;12.30;99.90;;;;;;4990200;28;20042;-89
2022/09/14 01:37:32;;;;;;;5.63;3.00;;;12.20;99.90;;;;;;4966080;28;20051;-90
2022/09/14 01:40:20;;;;;;;5.10;2.97;;;12.20;99.90;;;;;;4968804;28;20047;-89
2022/09/14 01:42:52;;;;;;;4.40;2.90;;;12.10;99.90;;;;;;4956274;28;20046;-90
2022/09/14 01:45:21;;;;;;;7.65;3.30;;;12.10;99.90;;;;;;5006126;28;20042;-90
2022/09/14 01:47:59;;;;;;;7.75;3.47;;;12.10;99.90;;;;;;4970761;28;20042;-89
2022/09/14 01:50:32;;;;;;;4.55;3.10;;;12.10;99.90;;;;;;4955839;28;20039;-90
2022/09/14 01:53:14;;;;;;;5.80;3.28;;;12.10;99.90;;;;;;4996327;28;20054;-89
2022/09/14 01:55:50;;;;;;;6.95;3.25;;;12.10;99.90;;;;;;4964026;28;20034;-90
2022/09/14 01:58:30;;;;;;;6.97;3.20;;;12.10;99.90;;;;;;4974301;28;20033;-90
2022/09/14 02:01:01;;;;;;;5.35;3.50;;;12.10;99.90;;;;;;4990560;28;20121;-90
2022/09/14 02:03:38;;;;;;;8.40;3.63;;;12.10;99.90;;;;;;4988532;28;20125;-89
2022/09/14 02:06:23;;;;;;;5.88;3.45;;;12.20;99.90;;;;;;4989477;28;20037;-90
2022/09/14 02:08:50;;;;;;;6.40;3.80;;;12.20;99.90;;;;;;4970980;28;20042;-90
2022/09/14 02:11:16;;;;;;;5.70;2.80;;;12.30;99.90;;;;;;4970069;28;20042;-89
2022/09/14 02:13:42;;;;;;;5.00;3.22;;;12.30;99.90;;;;;;4976750;28;20938;-89
2022/09/14 02:16:07;;;;;;;4.78;3.60;;;12.40;99.90;;;;;;4973003;28;20501;-89
2022/09/14 02:18:34;;;;;;;5.10;3.72;;;12.40;99.90;;;;;;4967726;28;20038;-90
2022/09/14 02:21:04;;;;;;;8.57;3.80;;;12.60;99.90;;;;;;4961675;28;20070;-90
2022/09/14 02:23:29;;;;;;;5.63;3.45;;;12.60;99.90;;;;;;4976327;28;20027;-90
2022/09/14 02:25:56;;;;;;;6.10;3.47;;;12.60;99.90;;;;;;4991887;28;20064;-89
2022/09/14 02:28:22;;;;;;;5.38;3.17;;;12.60;99.90;;;;;;4969475;28;20409;-90
2022/09/14 02:31:18;;;;;;;7.25;3.30;;;12.70;99.90;;;;;;4965742;28;20530;-90
2022/09/14 02:33:51;;;;;;;8.15;4.05;;;12.70;99.90;;;;;;4965338;28;20165;-90
2022/09/14 02:36:45;;;;;;;8.07;4.05;;;12.70;99.90;;;;;;4974011;28;20042;-90
2022/09/14 02:39:39;;;;;;;8.07;4.70;;;12.80;99.90;;;;;;4987596;28;20050;-89
2022/09/14 02:42:23;;;;;;;6.60;4.55;;;12.70;99.90;;;;;;4964438;28;20050;-90
2022/09/14 02:45:02;;;;;;;8.63;4.60;;;12.80;99.90;;;;;;4995214;28;20121;-90
2022/09/14 02:47:55;;;;;;;6.07;4.32;;;12.80;99.90;;;;;;4990011;28;20046;-90
2022/09/14 02:50:32;;;;;;;9.60;4.78;;;12.80;99.90;;;;;;4966488;28;20494;-90
2022/09/14 02:53:12;;;;;;;8.20;4.93;;;12.80;99.90;;;;;;4992485;28;20047;-89
2022/09/14 02:55:45;;;;;;;7.97;4.68;;;12.80;99.90;;;;;;4960454;28;20121;-89
2022/09/14 02:58:13;;;;;;;9.00;4.60;;;12.90;99.90;;;;;;4988761;28;20042;-90
2022/09/14 03:00:41;;;;;;;8.93;4.68;;;12.80;99.90;;;;;;4971301;28;20410;-89
2022/09/14 03:03:08;;;;;;;5.18;4.13;;;12.90;99.90;;;;;;4968137;28;20312;-89
2022/09/14 03:05:35;;;;;;;10.10;4.53;;;12.90;99.90;;;;;;4957720;28;20039;-89
2022/09/14 03:08:01;;;;;;;11.75;5.03;;;13.00;99.90;;;;;;4981297;28;20552;-89
2022/09/14 03:10:27;;;;;;;6.72;4.43;;;13.00;99.90;;;;;;4970733;28;20034;-89
2022/09/14 03:12:53;;;;;;;8.95;5.05;;;13.00;99.90;;;;;;4970161;28;20034;-90
2022/09/14 03:15:22;;;;;;;7.03;4.45;;;13.00;99.90;;;;;;4966897;28;20060;-88
2022/09/14 03:17:48;;;;;;;9.25;4.55;;;13.00;99.90;;;;;;4974835;28;20041;-89
2022/09/14 03:20:18;;;;;;;7.28;4.43;;;13.00;99.90;;;;;;4965023;28;20038;-89
2022/09/14 03:22:44;;;;;;;7.68;4.28;;;13.10;99.90;;;;;;4971274;28;20045;-88
2022/09/14 03:25:10;;;;;;;6.68;4.28;;;13.10;99.90;;;;;;4967129;28;20050;-89
2022/09/14 03:27:36;;;;;;;7.53;4.20;;;13.20;99.90;;;;;;4968668;28;20798;-89
2022/09/14 03:30:04;;;;;;;8.20;4.30;;;13.10;99.90;;;;;;4970608;28;20502;-90
2022/09/14 03:32:29;;;;;;;9.65;4.47;;;13.20;99.90;;;;;;4966148;28;20053;-89
2022/09/14 03:34:56;;;;;;;8.30;4.30;;;13.20;99.90;;;;;;4983250;28;20560;-90
2022/09/14 03:37:22;;;;;;;10.88;5.07;;;13.20;99.90;;;;;;4997222;28;20043;-90
2022/09/14 03:39:47;;;;;;;7.65;4.88;;;13.30;99.90;;;;;;4999823;28;20046;-89
2022/09/14 03:42:13;;;;;;;8.65;4.22;;;13.20;99.90;;;;;;4970682;28;20118;-87
2022/09/14 03:44:39;;;;;;;8.25;4.30;;;13.40;99.90;;;;;;4969102;28;20038;-89
2022/09/14 03:47:05;;;;;;;9.88;4.40;;;13.40;99.90;;;;;;4968021;28;20034;-89
2022/09/14 03:49:31;;;;;;;7.13;4.32;;;13.40;99.90;;;;;;5011406;28;20061;-89
2022/09/14 03:51:56;;;;;;;10.57;4.50;;;13.40;99.90;;;;;;4964797;28;20062;-89
2022/09/14 03:54:22;;;;;;;6.25;4.28;;;13.50;99.90;;;;;;4963049;28;20050;-89
2022/09/14 03:56:49;;;;;;;7.95;4.18;;;13.40;99.90;;;;;;4968073;28;20054;-89
2022/09/14 03:59:15;;;;;;;8.80;4.50;;;13.50;99.90;;;;;;5010436;28;20146;-89
2022/09/14 04:01:41;;;;;;;7.47;4.03;;;13.50;99.90;;;;;;4966909;28;20361;-89
2022/09/14 04:04:07;;;;;;;7.35;4.25;;;13.50;99.90;;;;;;4983124;28;20170;-89
2022/09/14 04:06:33;;;;;;;7.18;4.15;;;13.50;99.90;;;;;;4970947;28;20097;-89
2022/09/14 04:08:58;;;;;;;7.50;4.20;;;13.60;99.90;;;;;;4970634;28;20125;-88
2022/09/14 04:11:24;;;;;;;7.85;4.30;;;13.60;99.90;;;;;;5003672;28;20118;-88
2022/09/14 04:13:51;;;;;;;6.93;4.13;;;13.50;99.90;;;;;;4965390;28;20300;-89
2022/09/14 04:16:19;;;;;;;7.07;4.05;;;13.50;99.90;;;;;;4965598;28;20177;-88
2022/09/14 04:18:45;;;;;;;6.25;4.28;;;13.60;99.90;;;;;;4967847;28;20070;-89
2022/09/14 04:21:19;;;;;;;8.63;3.95;;;13.50;99.90;;;;;;4984526;28;20138;-89
2022/09/14 04:23:45;;;;;;;8.90;4.50;;;13.60;99.90;;;;;;4985763;28;20506;-89
2022/09/14 04:26:13;;;;;;;5.78;4.32;;;13.60;99.90;;;;;;5010764;28;20055;-90
2022/09/14 04:28:42;;;;;;;7.63;4.57;;;13.60;99.90;;;;;;4987862;28;20046;-90
2022/09/14 04:31:09;;;;;;;6.03;4.45;;;13.60;99.90;;;;;;4972627;28;20046;-89
2022/09/14 04:33:38;;;;;;;8.25;4.50;;;13.70;99.90;;;;;;4972063;28;20129;-89
2022/09/14 04:36:09;;;;;;;7.78;4.00;;;13.60;99.90;;;;;;5012216;28;20068;-89
2022/09/14 04:38:36;;;;;;;6.68;4.10;;;13.70;99.90;;;;;;4992978;28;20460;-89
2022/09/14 04:41:11;;;;;;;7.07;4.10;;;13.60;99.90;;;;;;4986019;28;20030;-89
2022/09/14 04:43:37;;;;;;;7.75;4.35;;;13.60;99.90;;;;;;4986285;28;20055;-89
2022/09/14 04:46:06;;;;;;;10.02;4.18;;;13.60;99.90;;;;;;4964388;28;20042;-89
2022/09/14 04:48:33;;;;;;;8.05;4.43;;;13.70;99.90;;;;;;4983286;28;20039;-89
2022/09/14 04:51:08;;;;;;;11.02;4.78;;;13.80;99.90;;;;;;4962594;28;20035;-89
2022/09/14 04:53:35;;;;;;;;;;;13.70;99.90;;;;;;4984383;28;20124;-89
2022/09/14 04:56:06;;;;;;;7.63;4.05;;;13.70;99.90;;;;;;4963359;28;20384;-89
2022/09/14 04:58:33;;;;;;;8.35;4.18;;;13.80;99.90;;;;;;4974044;28;20324;-89
2022/09/14 05:01:14;;;;;;;8.85;4.78;;;13.80;99.90;;;;;;4965841;28;20038;-89
2022/09/14 05:03:41;;;;;;;8.57;4.25;;;13.80;99.90;;;;;;4965322;28;20049;-90
2022/09/14 05:06:12;;;;;;;7.90;3.72;;;13.80;99.90;;;;;;5004433;28;20125;-88
2022/09/14 05:08:39;;;;;;;7.70;4.07;;;13.80;99.90;;;;;;4951350;28;20121;-89
2022/09/14 05:11:07;;;;;;;9.35;4.13;;;13.80;99.90;;;;;;4994803;28;20041;-90
2022/09/14 05:13:34;;;;;;;7.80;3.88;;;13.70;99.90;;;;;;4969357;28;20053;-90
2022/09/14 05:16:20;;;;;;;9.55;3.95;;;13.70;99.90;;;;;;5010532;28;20046;-89
2022/09/14 05:18:46;;;;;;;6.68;4.00;;;13.90;99.90;;;;;;4967016;28;20215;-90
2022/09/14 05:21:17;;;;;;;7.57;4.20;;;13.80;99.90;;;;;;4970287;28;20425;-89
2022/09/14 05:23:44;;;;;;;7.43;4.28;;;13.80;99.90;;;;;;4971815;28;20042;-89
2022/09/14 05:26:10;;;;;;;5.22;3.97;;;13.80;99.90;;;;;;4981904;28;20053;-89
2022/09/14 05:28:37;;;;;;;9.35;4.13;;;13.80;99.90;;;;;;4964093;28;20405;-89
2022/09/14 05:31:05;;;;;;;5.95;3.72;;;13.90;99.90;;;;;;4993993;28;20485;-88
2022/09/14 05:33:31;;;;;;;7.75;4.60;;;13.90;99.90;;;;;;4991592;28;20042;-89
2022/09/14 05:36:01;;;;;;;8.73;3.72;;;13.90;99.90;;;;;;4965304;28;20096;-88
2022/09/14 05:38:28;;;;;;;6.93;4.25;;;14.00;99.90;;;;;;4984991;28;20100;-89
2022/09/14 05:40:54;;;;;;;8.13;4.18;;;14.00;99.90;;;;;;4985835;28;20038;-87
2022/09/14 05:43:21;;;;;;;12.68;3.90;;;14.00;99.90;;;;;;4966998;28;20118;-90
2022/09/14 05:45:47;;;;;;;7.15;4.03;;;14.10;99.90;;;;;;5007162;28;20261;-89
2022/09/14 05:48:13;;;;;;;7.45;3.90;;;14.10;99.90;;;;;;4965537;28;20068;-89
2022/09/14 05:50:39;;;;;;;5.85;3.20;;;14.00;99.90;;;;;;4998827;28;20054;-85
2022/09/14 05:53:05;;;;;;;6.30;3.35;;;14.20;99.90;;;;;;5002640;28;20052;-84
2022/09/14 05:55:30;;;;;;;7.50;4.30;;;14.20;99.90;;;;;;4968362;28;20128;-84
2022/09/14 05:57:56;;;;;;;11.20;3.53;;;14.20;99.90;;;;;;4961538;28;20045;-84
2022/09/14 06:00:21;;;;;;;7.90;3.15;;;14.20;99.90;;;;;;4991995;28;20414;-84
2022/09/14 06:02:52;;;;;;;6.13;3.15;;;14.30;99.90;;;;;;4964617;28;20038;-84
2022/09/14 06:05:18;;;;;;;6.32;3.20;;;14.30;99.90;;;;;;4983219;28;20111;-84
2022/09/14 06:07:49;;;;;;;4.40;2.80;;;14.40;99.90;;;;;;5002631;28;20055;-85
2022/09/14 06:10:18;;;;;;;4.60;3.35;;;14.40;99.90;;;;;;4977321;28;20058;-85
2022/09/14 06:12:44;;;;;;;5.05;3.00;;;14.50;99.90;;;;;;5001987;28;20422;-84
2022/09/14 06:15:10;;;;;;;8.20;3.70;;;14.60;99.90;;;;;;5005567;28;20031;-84
2022/09/14 06:17:36;;;;;;;8.13;3.67;;;14.50;99.90;;;;;;4970202;28;20117;-84
2022/09/14 06:20:05;;;;;;;7.35;3.47;;;14.50;99.90;;;;;;4950489;28;20054;-85
2022/09/14 06:22:31;;;;;;;10.32;4.30;;;14.60;99.90;;;;;;5006964;28;20197;-84
2022/09/14 06:24:57;;;;;;;4.57;3.50;;;14.60;99.90;;;;;;4990538;28;20047;-84
2022/09/14 06:27:23;;;;;;;7.95;3.53;;;14.60;99.90;;;;;;4964650;28;20042;-84
2022/09/14 06:29:52;;;;;;;8.50;4.00;;;14.80;99.90;;;;;;4980929;28;20530;-85
2022/09/14 06:32:22;;;;;;;6.38;3.50;;;14.70;99.90;;;;;;4971784;28;20421;-84
2022/09/14 06:34:48;;;;;;;8.23;3.42;;;14.70;99.90;;;;;;4976984;28;20121;-84
2022/09/14 06:37:13;;;;;;;6.40;3.40;;;14.80;99.90;;;;;;4959395;28;20042;-84
2022/09/14 06:39:39;;;;;;;6.90;3.67;;;14.80;99.90;;;;;;4999312;28;20349;-85
2022/09/14 06:42:05;;;;;;;7.95;3.88;;;14.90;99.90;;;;;;4981668;28;20046;-85
2022/09/14 06:44:31;;;;;;;6.35;3.70;;;14.90;99.90;;;;;;5004819;28;20091;-84
2022/09/14 06:46:56;;;;;;;4.70;3.25;;;15.10;99.90;;;;;;4992069;28;20045;-84
2022/09/14 06:49:22;;;;;;;7.78;3.67;;;15.20;99.90;;;;;;4983122;28;20061;-84
2022/09/14 06:51:49;;;;;;;9.88;3.80;;;15.30;99.90;;;;;;4988513;28;20046;-84
2022/09/14 06:54:17;;;;;;;5.55;3.63;;;15.40;99.90;;;;;;5010481;28;20153;-84
2022/09/14 06:56:44;;;;;;;7.88;3.75;;;15.50;99.90;;;;;;4972980;28;20456;-84
2022/09/14 06:59:12;;;;;;;6.93;3.38;;;15.60;99.90;;;;;;4984468;28;20495;-84
2022/09/14 07:01:38;;;;;;;6.80;3.35;;;15.60;99.90;;;;;;4958303;28;20050;-84
2022/09/14 07:04:05;;;;;;;6.50;3.47;;;15.60;99.90;;;;;;4987885;28;20047;-84
2022/09/14 07:06:37;;;;;;;4.65;3.20;;;15.80;99.90;;;;;;4964704;28;20042;-85
2022/09/14 07:09:04;;;;;;;6.78;3.40;;;15.80;99.90;;;;;;4996195;28;20109;-84
2022/09/14 07:11:30;;;;;;;8.63;3.50;;;16.00;99.90;;;;;;4980285;28;20485;-84
2022/09/14 07:14:14;;;;;;;5.18;3.40;;;16.00;99.90;;;;;;4986545;28;20435;-84
2022/09/14 07:16:40;;;;;;;4.97;2.90;;;16.10;99.90;;;;;;4977774;28;20232;-84
2022/09/14 07:19:10;;;;;;;8.18;3.95;;;16.10;99.90;;;;;;4987210;28;20397;-85
2022/09/14 07:21:35;;;;;;;4.28;2.80;;;16.20;99.90;;;;;;4976048;28;20389;-84
2022/09/14 07:24:02;;;;;;;5.80;2.70;;;16.20;99.90;;;;;;4999735;28;20053;-84
2022/09/14 07:26:30;;;;;;;8.27;2.97;;;16.30;99.90;;;;;;4963264;28;20042;-84
2022/09/14 07:28:58;;;;;;;10.25;2.90;;;16.40;99.90;;;;;;4970726;28;20042;-84
2022/09/14 07:31:31;;;;;;;5.45;3.05;;;16.40;99.90;;;;;;5007084;28;20146;-84
2022/09/14 07:34:02;;;;;;;6.95;2.80;;;16.60;99.90;;;;;;5006936;28;20046;-85
2022/09/14 07:36:29;;;;;;;4.93;2.78;;;16.60;99.90;;;;;;4969019;28;20165;-84
2022/09/14 07:38:55;;;;;;;5.25;2.60;;;16.80;99.90;;;;;;4980494;28;20043;-84
2022/09/14 07:41:28;;;;;;;4.60;1.90;;;16.80;99.90;;;;;;4969790;28;20089;-84
2022/09/14 07:43:56;;;;;;;6.00;2.20;;;16.80;99.90;;;;;;4976039;28;20086;-84
2022/09/14 07:46:22;;;;;;;3.50;2.10;;;16.90;99.90;;;;;;4979106;28;20050;-84
2022/09/14 07:48:54;;;;;;;5.93;2.28;;;16.90;99.90;;;;;;4963836;28;20065;-84
2022/09/14 07:51:23;;;;;;;4.15;2.05;;;17.10;99.90;;;;;;5006951;28;20065;-85
2022/09/14 07:53:51;;;;;;;4.82;2.17;;;17.30;99.90;;;;;;4975485;28;20350;-84
2022/09/14 07:56:17;;;;;;;4.30;2.05;;;17.40;99.90;;;;;;4970395;28;20058;-85
2022/09/14 07:58:43;;;;;;;7.35;2.03;;;17.50;99.90;;;;;;4995246;28;20042;-84
2022/09/14 08:01:12;;;;;;;4.55;2.08;;;17.50;99.90;;;;;;4986256;28;20042;-84
2022/09/14 08:03:40;;;;;;;3.15;1.83;;;17.50;99.90;;;;;;5009897;28;20411;-85
2022/09/14 08:06:15;;;;;;;6.13;1.90;;;17.50;99.90;;;;;;4977703;28;20053;-84
2022/09/14 08:08:43;;;;;;;;;;;17.60;99.90;;;;;;4981591;28;20185;-84
2022/09/14 08:11:21;;;;;;;6.63;2.17;;;17.50;23.60;;;;;;4972417;28;20362;-85
2022/09/14 08:14:19;;;;;;;5.90;1.40;;;17.50;99.90;;;;;;4967820;28;20086;-84
2022/09/14 08:16:45;;;;;;;6.25;1.90;;;17.60;99.90;;;;;;4951480;28;20058;-85
2022/09/14 08:19:14;;;;;;;6.07;2.00;;;17.60;1.00;;;;;;4981432;28;20103;-85
2022/09/14 08:21:40;;;;;;;5.05;1.90;;;17.70;1.00;;;;;;4965544;28;20094;-84
2022/09/14 08:24:06;;;;;;;5.88;1.80;;;17.60;99.90;;;;;;4980095;28;20481;-85
2022/09/14 08:26:35;;;;;;;5.40;2.08;;;17.90;77.80;;;;;;5008661;28;20078;-85
2022/09/14 08:29:03;;;;;;;4.35;1.85;;;17.80;1.00;;;;;;4998206;28;20039;-84
2022/09/14 08:31:34;;;;;;;5.07;2.08;;;17.80;1.00;;;;;;4961393;28;20047;-84
2022/09/14 08:34:03;;;;;;;9.13;2.58;;;17.70;1.00;;;;;;4974908;28;20056;-84
2022/09/14 08:36:33;;;;;;;7.80;2.28;;;17.60;99.90;;;;;;4972637;28;20125;-85
2022/09/14 08:38:59;;;;;;;4.63;1.75;;;17.80;1.00;;;;;;4989756;28;20066;-85
2022/09/14 08:41:37;;;;;;;4.15;2.00;;;17.90;99.90;;;;;;4984779;28;20081;-84
2022/09/14 08:44:33;;;;;;;4.55;1.90;;;18.10;99.90;;;;;;4967776;28;20034;-85
2022/09/14 08:47:01;;;;;;;5.20;1.63;;;18.20;1.00;;;;;;4961166;28;20126;-84
2022/09/14 08:49:42;;;;;;;4.40;1.73;;;18.40;98.90;;;;;;4966287;28;20052;-85
2022/09/14 08:52:36;;;;;;;4.35;1.60;;;18.40;1.80;;;;;;4988467;28;20466;-85
2022/09/14 08:55:23;;;;;;;6.07;1.60;;;18.50;99.90;;;;;;4982307;28;20569;-84
2022/09/14 08:58:02;;;;;;;5.93;1.55;;;18.60;63.90;;;;;;4986962;28;20050;-85
2022/09/14 09:00:46;;;;;;;5.75;1.50;;;18.70;1.00;;;;;;4967825;28;20042;-85
2022/09/14 09:03:34;;;;;;;6.57;1.50;;;18.70;1.00;;;;;;4979379;28;20054;-85
2022/09/14 09:06:13;;;;;;;4.07;1.33;;;18.70;15.90;;;;;;4999343;28;20355;-85
2022/09/14 09:08:44;;;;;;;5.13;1.35;;;18.50;1.00;;;;;;4988650;28;20158;-85
2022/09/14 09:11:17;;;;;;;5.07;1.60;;;18.90;99.90;;;;;;5009949;28;20043;-85
2022/09/14 09:13:45;;;;;;;8.38;1.75;;;19.20;99.90;;;;;;5008994;28;20152;-85
2022/09/14 09:16:15;;;;;;;5.90;1.45;;;19.50;99.90;;;;;;5005479;28;21258;-85
2022/09/14 09:19:01;;;;;;;5.13;1.33;;;19.50;99.90;;;;;;4977664;28;20525;-85
2022/09/14 09:21:44;;;;;;;5.35;1.00;;;19.50;1.00;;;;;;4951002;28;20065;-85
2022/09/14 09:24:29;;;;;;;7.75;1.52;;;19.50;99.90;;;;;;4973595;28;20062;-84
2022/09/14 09:26:54;;;;;;;4.88;1.17;;;19.30;95.50;;;;;;4964255;28;20228;-84
2022/09/14 09:29:20;;;;;;;7.88;1.50;;;19.40;99.90;;;;;;4979041;28;20062;-84
2022/09/14 09:31:55;;;;;;;3.63;1.02;;;19.40;1.00;;;;;;4980884;28;20050;-84
2022/09/14 09:34:26;;;;;;;5.80;1.60;;;19.50;54.10;;;;;;4966281;28;20252;-84
2022/09/14 09:36:54;;;;;;;4.18;1.20;;;19.40;1.00;;;;;;4975576;28;20304;-85
2022/09/14 09:39:22;;;;;;;5.93;1.33;;;19.70;1.00;;;;;;4977877;28;20406;-85
2022/09/14 09:42:22;;;;;;;5.30;1.42;;;20.00;1.00;;;;;;4989110;28;20121;-85
2022/09/14 09:45:03;;;;;;;4.00;1.33;;;20.00;99.90;;;;;;4951908;28;20579;-84
2022/09/14 09:47:33;;;;;;;5.93;1.13;;;19.80;99.90;;;;;;4980407;28;20141;-85
2022/09/14 09:50:02;;;;;;;5.10;1.23;;;20.10;99.90;;;;;;4979949;28;20054;-84
2022/09/14 09:52:29;;;;;;;5.63;1.10;;;20.40;99.90;;;;;;5005131;28;20065;-84
2022/09/14 09:54:57;;;;;;;4.90;1.27;;;20.60;99.90;;;;;;4973372;28;20050;-85
2022/09/14 09:57:31;;;;;;;4.70;1.95;;;20.40;99.90;;;;;;4977038;28;20379;-85
2022/09/14 10:00:27;;;;;;;;;;;20.20;99.90;;;;;;4971253;28;20073;-85
2022/09/14 10:02:54;;;;;;;4.90;1.20;;;20.20;99.90;;;;;;4988359;28;20507;-84
2022/09/14 10:05:27;;;;;;;5.75;1.48;;;20.20;99.90;;;;;;4978166;28;20073;-85
2022/09/14 10:08:02;;;;;;;4.85;1.27;;;20.30;99.90;;;;;;4988687;28;20034;-85
2022/09/14 10:10:33;;;;;;;5.78;1.48;;;20.50;99.90;;;;;;4958795;28;20104;-85
2022/09/14 10:13:00;;;;;;;3.95;0.90;;;20.40;99.90;;;;;;4981782;28;20038;-84
2022/09/14 10:15:35;;;;;;;8.02;1.30;;;20.20;99.90;;;;;;4982288;28;20045;-85
2022/09/14 10:18:16;;;;;;;5.40;1.10;;;20.10;99.90;;;;;;4959394;28;20158;-85
2022/09/14 10:21:04;;;;;;;5.30;1.45;;;20.40;99.90;;;;;;4978086;28;20043;-84
2022/09/14 10:23:35;;;;;;;4.82;1.27;;;20.40;99.90;;;;;;4967806;28;20490;-85
2022/09/14 10:26:13;;;;;;;3.38;0.98;;;20.30;99.90;;;;;;4976012;28;20590;-84
2022/09/14 10:28:47;;;;;;;5.32;0.90;;;20.50;99.90;;;;;;4981064;28;20046;-85
2022/09/14 10:31:24;;;;;;;6.85;1.33;;;20.90;51.00;;;;;;4977907;28;20051;-85
2022/09/14 10:33:55;;;;;;;5.95;1.20;;;20.90;43.40;;;;;;4968341;28;20103;-85
2022/09/14 10:36:29;;;;;;;5.00;1.23;;;21.20;59.50;;;;;;4978445;28;20132;-85
2022/09/14 10:39:15;;;;;;;3.83;1.02;;;21.50;1.00;;;;;;4990243;28;20418;-85
2022/09/14 10:41:50;;;;;;;3.47;1.10;;;21.60;1.00;;;;;;4974607;28;20042;-87
2022/09/14 10:44:30;;;;;;;4.10;1.08;;;22.00;1.00;;;;;;4971399;28;20042;-85
2022/09/14 10:47:22;;;;;;;6.80;1.45;;;21.40;1.00;;;;;;4964697;28;20050;-85
2022/09/14 10:50:10;;;;;;;5.25;1.27;;;21.40;1.00;;;;;;4972780;28;20358;-84
2022/09/14 10:52:54;;;;;;;4.38;0.93;;;21.30;1.00;;;;;;4995324;28;20042;-85
2022/09/14 10:55:30;;;;;;;4.85;1.02;;;21.20;1.00;;;;;;4964656;28;20463;-84
2022/09/14 10:58:01;;;;;;;6.78;1.00;;;21.10;1.00;;;;;;4988157;28;20042;-84
2022/09/14 11:00:32;;;;;;;7.20;1.25;;;20.70;1.00;;;;;;4948254;28;20491;-85
2022/09/14 11:03:10;;;;;;;3.70;1.00;;;20.20;17.80;;;;;;4970969;28;20034;-84
2022/09/14 11:06:17;;;;;;;6.80;1.17;;;20.40;1.00;;;;;;4969744;28;20063;-85
2022/09/14 11:08:49;;;;;;;5.68;1.02;;;19.50;1.00;;;;;;4998160;28;20343;-84
2022/09/14 11:11:34;;;;;;;5.38;1.52;;;19.60;79.90;;;;;;4992776;28;20046;-84
2022/09/14 11:14:09;;;;;;;5.47;2.08;;;19.60;99.10;;;;;;4971310;28;20273;-84
2022/09/14 11:16:58;;;;;;;3.25;0.90;;;19.70;99.90;;;;;;5008497;28;20078;-84
2022/09/14 11:19:51;;;;;;;2.97;1.20;;;19.80;15.60;;;;;;4968468;28;20044;-85
2022/09/14 11:22:43;;;;;;;5.57;1.20;;;20.00;88.20;;;;;;5000597;28;20051;-84
2022/09/14 11:25:21;;;;;;;4.53;0.95;;;20.20;99.90;;;;;;4971419;28;20138;-85
2022/09/14 11:28:06;;;;;;;4.00;1.08;;;20.10;99.90;;;;;;4991506;28;20046;-84
2022/09/14 11:30:59;;;;;;;6.65;1.42;;;20.20;99.90;;;;;;4961840;28;20030;-84
2022/09/14 11:33:47;;;;;;;4.75;1.08;;;20.00;99.90;;;;;;4991578;28;20046;-85
2022/09/14 11:36:20;;;;;;;4.93;1.38;;;20.50;99.90;;;;;;5013472;28;20541;-84
2022/09/14 11:38:52;;;;;;;5.97;1.40;;;20.70;1.00;;;;;;4967767;28;20054;-84
2022/09/14 11:41:46;;;;;;;5.75;1.17;;;20.50;1.00;;;;;;4993923;28;20133;-84
2022/09/14 11:44:21;;;;;;;7.63;1.50;;;21.00;1.00;;;;;;4993961;28;20061;-84
2022/09/14 11:47:08;;;;;;;3.33;1.08;;;21.10;8.90;;;;;;4981050;28;20042;-85
2022/09/14 11:49:57;;;;;;;4.45;1.15;;;21.20;1.00;;;;;;4993331;28;20077;-84
2022/09/14 11:52:29;;;;;;;4.47;1.10;;;21.20;1.00;;;;;;4992557;28;20162;-85
2022/09/14 11:54:56;;;;;;;8.35;1.20;;;21.40;1.00;;;;;;4979458;28;20047;-83
2022/09/14 11:57:32;;;;;;;4.60;1.17;;;21.80;1.00;;;;;;5002706;28;20038;-86
2022/09/14 12:00:06;;;;;;;3.78;1.00;;;21.60;1.00;;;;;;4983016;28;20050;-84
2022/09/14 12:02:35;;;;;;;3.88;1.02;;;21.40;1.00;;;;;;4970791;28;20085;-85
2022/09/14 12:05:04;;;;;;;5.05;1.10;;;21.40;1.00;;;;;;4995796;28;20046;-84
2022/09/14 12:07:41;;;;;;;6.68;1.42;;;21.30;1.00;;;;;;4967030;28;20042;-85
2022/09/14 12:10:13;;;;;;;3.60;1.05;;;21.70;1.00;;;;;;4969079;28;20576;-84
2022/09/14 12:12:57;;;;;;;4.82;1.52;;;22.20;1.00;;;;;;4980903;28;20050;-84
2022/09/14 12:15:25;;;;;;;5.43;1.20;;;22.30;99.90;;;;;;5007308;28;20371;-85
2022/09/14 12:18:06;;;;;;;5.40;1.33;;;22.10;99.90;;;;;;4953498;28;20121;-85
2022/09/14 12:20:45;;;;;;;4.32;1.10;;;22.80;99.90;;;;;;4978837;28;20058;-84
2022/09/14 12:23:14;;;;;;;3.03;1.00;;;21.60;99.90;;;;;;5007799;28;20124;-84
2022/09/14 12:25:52;;;;;;;7.72;1.75;;;21.20;99.90;;;;;;4996375;28;20050;-84
2022/09/14 12:28:36;;;;;;;5.68;1.15;;;21.30;99.90;;;;;;4981656;28;20176;-85
2022/09/14 12:31:02;;;;;;;6.07;1.10;;;21.40;99.90;;;;;;4957096;28;20550;-84
2022/09/14 12:33:30;;;;;;;5.90;1.27;;;21.40;99.90;;;;;;4976570;28;20290;-85
2022/09/14 12:36:18;;;;;;;3.05;1.10;;;21.00;99.90;;;;;;5006858;28;20050;-84
2022/09/14 12:38:51;;;;;;;4.68;0.88;;;21.40;99.90;;;;;;4987314;28;20062;-84
2022/09/14 12:41:17;;;;;;;4.78;1.33;;;21.50;99.90;;;;;;4992854;28;20058;-85
2022/09/14 12:43:49;;;;;;;4.85;1.20;;;21.50;99.90;;;;;;4983936;28;20606;-85
2022/09/14 12:46:20;;;;;;;4.07;0.90;;;21.50;99.90;;;;;;4999539;28;20049;-84
2022/09/14 12:48:46;;;;;;;6.05;1.17;;;21.60;99.90;;;;;;4975065;28;22492;-85
2022/09/14 12:51:25;;;;;;;3.35;1.10;;;21.40;99.90;;;;;;4971674;28;20403;-84
2022/09/14 12:54:08;;;;;;;4.13;1.40;;;21.30;99.90;;;;;;4974935;28;20498;-84
2022/09/14 12:56:51;;;;;;;3.67;1.05;;;21.20;99.90;;;;;;4958118;28;20037;-84
2022/09/14 12:59:44;;;;;;;5.68;1.10;;;21.10;99.90;;;;;;4967449;28;20050;-84
2022/09/14 13:02:29;;;;;;;5.43;1.48;;;21.50;99.90;;;;;;5006147;28;20129;-84
2022/09/14 13:04:57;;;;;;;6.60;1.48;;;21.60;99.90;;;;;;4993101;28;20043;-86
2022/09/14 13:07:28;;;;;;;4.68;1.17;;;22.30;99.90;;;;;;4996381;28;20057;-86
2022/09/14 13:09:56;;;;;;;3.63;1.00;;;22.10;99.90;;;;;;4953168;28;20513;-86
2022/09/14 13:12:42;;;;;;;2.47;0.80;;;22.00;99.90;;;;;;4966353;28;20042;-86
2022/09/14 13:15:24;;;;;;;8.90;1.67;;;22.30;99.90;;;;;;4985140;28;20130;-86